createdAt,value
2022-08-30T00:02:42.117Z,85.28
2022-08-30T00:07:45.106Z,85.39
2022-08-30T00:12:49.085Z,85.04
2022-08-30T00:17:52.384Z,85.50
2022-08-30T00:22:56.083Z,85.44
2022-08-30T00:27:59.253Z,85.32
2022-08-30T00:33:02.272Z,85.33
2022-08-30T00:38:05.185Z,85.33
2022-08-30T00:43:17.003Z,85.40
2022-08-30T00:48:23.285Z,85.28
2022-08-30T00:53:35.427Z,85.20
2022-08-30T00:58:44.210Z,85.22
2022-08-30T01:03:48.001Z,85.07
2022-08-30T01:08:50.939Z,85.01
2022-08-30T01:13:56.296Z,84.98
2022-08-30T01:19:00.650Z,84.99
2022-08-30T01:24:07.058Z,84.95
2022-08-30T01:29:17.112Z,85.00
2022-08-30T01:34:20.065Z,85.09
2022-08-30T01:39:24.691Z,85.01
2022-08-30T01:44:27.647Z,85.02
2022-08-30T01:49:30.570Z,84.92
2022-08-30T01:54:38.391Z,84.86
2022-08-30T01:59:47.576Z,84.94
2022-08-30T02:04:51.922Z,85.13
2022-08-30T02:09:54.921Z,85.20
2022-08-30T02:14:58.192Z,85.25
2022-08-30T02:20:01.198Z,85.32
2022-08-30T02:25:07.474Z,85.26
2022-08-30T02:30:24.064Z,85.18
2022-08-30T02:35:27.156Z,85.29
2022-08-30T02:40:30.255Z,85.24
2022-08-30T02:45:33.719Z,85.18
2022-08-30T02:50:43.062Z,85.28
2022-08-30T02:55:45.996Z,85.33
2022-08-30T03:00:49.019Z,85.61
2022-08-30T03:05:55.501Z,86.58
2022-08-30T03:11:00.137Z,87.14
2022-08-30T03:16:03.431Z,87.77
2022-08-30T03:21:11.899Z,87.89
2022-08-30T03:26:15.122Z,88.21
2022-08-30T03:31:18.170Z,88.35
2022-08-30T03:36:21.521Z,88.85
2022-08-30T03:41:25.346Z,89.28
2022-08-30T03:46:29.219Z,89.45
2022-08-30T03:51:32.327Z,89.73
2022-08-30T03:56:35.276Z,89.73
2022-08-30T04:01:38.355Z,89.83
2022-08-30T04:06:41.474Z,89.99
2022-08-30T04:11:44.494Z,90.17
2022-08-30T04:16:47.506Z,90.44
2022-08-30T04:21:50.564Z,90.82
2022-08-30T04:26:53.555Z,90.71
2022-08-30T04:31:56.756Z,90.62
2022-08-30T04:36:59.801Z,90.36
2022-08-30T04:42:03.557Z,90.20
2022-08-30T04:47:08.573Z,90.06
2022-08-30T04:52:11.552Z,89.93
2022-08-30T04:57:14.696Z,90.10
2022-08-30T05:02:18.856Z,90.44
2022-08-30T05:07:21.860Z,90.31
2022-08-30T05:12:25.111Z,90.29
2022-08-30T05:17:28.594Z,89.82
2022-08-30T05:22:31.889Z,89.82
2022-08-30T05:27:37.550Z,89.97
2022-08-30T05:32:41.638Z,90.44
2022-08-30T05:37:45.920Z,90.37
2022-08-30T05:42:48.923Z,90.24
2022-08-30T05:47:51.895Z,89.97
2022-08-30T05:52:55.012Z,89.88
2022-08-30T05:57:57.999Z,89.45
2022-08-30T06:03:00.958Z,89.51
2022-08-30T06:08:04.382Z,89.79
2022-08-30T06:13:07.413Z,90.44
2022-08-30T06:18:10.491Z,90.48
2022-08-30T06:23:14.918Z,90.32
2022-08-30T06:28:18.495Z,90.11
2022-08-30T06:33:21.524Z,89.24
2022-08-30T06:38:24.531Z,88.94
2022-08-30T06:43:27.495Z,88.50
2022-08-30T06:48:30.501Z,87.92
2022-08-30T06:53:34.730Z,87.70
2022-08-30T06:58:41.028Z,87.84
2022-08-30T07:03:44.556Z,87.78
2022-08-30T07:08:56.065Z,87.41
2022-08-30T07:14:00.349Z,86.86
2022-08-30T07:19:05.565Z,86.41
2022-08-30T07:24:10.250Z,85.98
2022-08-30T07:29:13.378Z,85.92
2022-08-30T07:34:16.710Z,85.87
2022-08-30T07:39:20.360Z,84.97
2022-08-30T07:44:25.189Z,84.06
2022-08-30T07:49:28.532Z,83.58
2022-08-30T07:54:31.498Z,83.29
2022-08-30T07:59:36.166Z,82.79
2022-08-30T08:04:39.532Z,82.96
2022-08-30T08:09:42.620Z,82.67
2022-08-30T08:14:46.246Z,81.38
2022-08-30T08:19:49.226Z,81.04
2022-08-30T08:24:52.309Z,83.95
2022-08-30T08:29:55.588Z,86.18
2022-08-30T08:34:58.735Z,87.49
2022-08-30T08:40:06.081Z,88.29
2022-08-30T08:45:20.110Z,88.28
2022-08-30T08:50:25.510Z,88.29
2022-08-30T08:55:30.011Z,88.01
2022-08-30T09:00:33.267Z,87.97
2022-08-30T09:05:40.662Z,87.56
2022-08-30T09:10:57.459Z,87.25
2022-08-30T09:16:00.695Z,86.75
2022-08-30T09:21:07.886Z,86.64
2022-08-30T09:26:10.935Z,86.49
2022-08-30T09:31:45.593Z,85.36
2022-08-30T09:36:52.824Z,85.22
2022-08-30T09:42:23.915Z,84.80
2022-08-30T09:47:32.366Z,83.88
2022-08-30T09:53:13.477Z,83.23
2022-08-30T09:59:17.063Z,83.26
2022-08-30T10:04:53.346Z,84.66
2022-08-30T10:10:36.112Z,84.46
2022-08-30T10:15:46.685Z,85.83
2022-08-30T10:21:17.031Z,86.11
2022-08-30T10:26:35.009Z,85.47
2022-08-30T10:32:29.619Z,86.36
2022-08-30T10:37:41.114Z,87.79
2022-08-30T10:42:44.347Z,88.16
2022-08-30T10:48:17.623Z,88.16
2022-08-30T10:53:37.331Z,87.67
2022-08-30T10:58:42.895Z,87.25
2022-08-30T11:04:02.658Z,86.79
2022-08-30T11:09:40.103Z,86.33
2022-08-30T11:14:45.777Z,85.57
2022-08-30T11:19:49.530Z,84.92
2022-08-30T11:25:38.812Z,84.69
2022-08-30T11:30:41.910Z,85.10
2022-08-30T11:35:52.480Z,85.50
2022-08-30T11:40:55.293Z,85.58
2022-08-30T11:46:28.286Z,85.93
2022-08-30T11:51:50.862Z,87.75
2022-08-30T11:57:45.889Z,88.25
2022-08-30T12:03:16.048Z,88.60
2022-08-30T12:08:37.217Z,89.51
2022-08-30T12:13:43.324Z,89.47
2022-08-30T12:18:49.677Z,89.44
2022-08-30T12:24:09.839Z,88.89
2022-08-30T12:29:18.836Z,88.76
2022-08-30T12:34:30.543Z,88.56
2022-08-30T12:39:37.391Z,88.29
2022-08-30T12:44:41.676Z,88.21
2022-08-30T12:49:46.771Z,88.25
2022-08-30T12:54:53.962Z,88.40
2022-08-30T13:00:02.196Z,88.29
2022-08-30T13:05:45.017Z,88.48
2022-08-30T13:11:12.072Z,88.48
2022-08-30T13:16:26.515Z,88.52
2022-08-30T13:21:35.750Z,88.58
2022-08-30T13:26:41.320Z,88.63
2022-08-30T13:31:45.308Z,88.75
2022-08-30T13:36:58.784Z,88.46
2022-08-30T13:47:33.226Z,87.85
2022-08-30T13:52:37.505Z,87.31
2022-08-30T13:57:57.519Z,87.10
2022-08-30T14:03:01.648Z,87.14
2022-08-30T14:08:44.167Z,87.75
2022-08-30T14:13:31.634Z,87.76
2022-08-30T14:18:36.048Z,87.69
2022-08-30T14:23:40.131Z,87.70
2022-08-30T14:28:45.052Z,87.50
2022-08-30T14:33:48.780Z,87.54
2022-08-30T14:38:52.021Z,87.28
2022-08-30T14:43:55.346Z,87.34
2022-08-30T14:48:58.251Z,87.25
2022-08-30T14:54:01.316Z,87.08
2022-08-30T14:59:04.465Z,86.88
2022-08-30T15:04:10.269Z,86.43
2022-08-30T15:09:19.287Z,86.46
2022-08-30T15:14:28.234Z,86.76
2022-08-30T15:19:32.925Z,86.89
2022-08-30T15:24:36.088Z,87.13
2022-08-30T15:29:39.080Z,87.04
2022-08-30T15:34:42.093Z,87.01
2022-08-30T15:39:44.985Z,86.99
2022-08-30T15:44:55.274Z,87.36
2022-08-30T15:50:03.290Z,87.58
2022-08-30T15:55:07.312Z,87.81
2022-08-30T16:00:11.544Z,87.60
2022-08-30T16:05:15.513Z,87.50
2022-08-30T16:10:18.963Z,87.39
2022-08-30T16:15:21.924Z,87.36
2022-08-30T16:20:26.035Z,86.99
2022-08-30T16:25:40.937Z,86.81
2022-08-30T16:30:44.282Z,87.04
2022-08-30T16:35:54.116Z,87.28
2022-08-30T16:40:57.753Z,87.11
2022-08-30T16:46:04.553Z,86.97
2022-08-30T16:51:22.259Z,86.75
2022-08-30T16:56:27.584Z,86.81
2022-08-30T17:01:34.715Z,87.08
2022-08-30T17:06:39.177Z,87.06
2022-08-30T17:11:42.960Z,87.07
2022-08-30T17:16:46.008Z,87.32
2022-08-30T17:21:49.005Z,87.69
2022-08-30T17:26:52.538Z,88.07
2022-08-30T17:31:56.974Z,88.26
2022-08-30T17:37:00.542Z,88.35
2022-08-30T17:42:04.707Z,87.97
2022-08-30T17:47:08.753Z,87.82
2022-08-30T17:52:12.834Z,87.85
2022-08-30T17:57:16.993Z,87.74
2022-08-30T18:02:22.841Z,87.72
2022-08-30T18:07:33.801Z,87.54
2022-08-30T18:12:36.781Z,87.21
2022-08-30T18:17:41.565Z,87.11
2022-08-30T18:22:45.829Z,87.25
2022-08-30T18:27:58.133Z,87.63
2022-08-30T18:33:02.053Z,87.58
2022-08-30T18:38:06.185Z,87.47
2022-08-30T18:43:10.069Z,87.10
2022-08-30T18:48:14.565Z,86.76
2022-08-30T18:53:28.584Z,86.60
2022-08-30T18:58:32.546Z,86.51
2022-08-30T19:03:36.613Z,86.56
2022-08-30T19:08:41.547Z,86.76
2022-08-30T19:13:48.896Z,87.07
2022-08-30T19:18:54.512Z,87.23
2022-08-30T19:23:57.736Z,87.39
2022-08-30T19:29:02.330Z,87.72
2022-08-30T19:34:05.491Z,87.75
2022-08-30T19:39:10.078Z,88.00
2022-08-30T19:44:13.608Z,88.13
2022-08-30T19:49:16.804Z,87.80
2022-08-30T19:54:20.391Z,87.50
2022-08-30T19:59:23.514Z,86.46
2022-08-30T20:04:26.920Z,86.46
2022-08-30T20:09:30.783Z,86.69
2022-08-30T20:14:33.763Z,86.75
2022-08-30T20:19:37.230Z,86.88
2022-08-30T20:24:43.706Z,87.03
2022-08-30T20:29:47.445Z,87.16
2022-08-30T20:34:53.932Z,87.42
2022-08-30T20:39:57.637Z,87.57
2022-08-30T20:45:00.668Z,87.57
2022-08-30T20:50:09.232Z,87.81
2022-08-30T20:55:17.593Z,87.79
2022-08-30T21:00:20.749Z,87.88
2022-08-30T21:05:25.484Z,87.93
2022-08-30T21:10:28.641Z,88.17
2022-08-30T21:15:37.821Z,88.01
2022-08-30T21:20:42.342Z,87.97
2022-08-30T21:25:45.394Z,87.92
2022-08-30T21:30:48.500Z,88.02
2022-08-30T21:36:26.710Z,88.13
2022-08-30T21:41:31.546Z,88.01
2022-08-30T21:46:36.709Z,88.04
2022-08-30T21:51:43.479Z,88.21
2022-08-30T21:56:49.797Z,88.15
2022-08-30T22:01:52.863Z,88.20
2022-08-30T22:06:56.498Z,88.21
2022-08-30T22:11:59.538Z,88.24
2022-08-30T22:17:03.105Z,88.25
2022-08-30T22:22:06.716Z,88.22
2022-08-30T22:27:09.673Z,88.29
2022-08-30T22:32:13.233Z,88.36
2022-08-30T22:37:16.366Z,88.48
2022-08-30T22:42:19.440Z,88.62
2022-08-30T22:47:22.415Z,88.58
2022-08-30T22:52:25.951Z,88.56
2022-08-30T22:57:28.908Z,88.65
2022-08-30T23:02:34.910Z,88.71
2022-08-30T23:07:38.071Z,88.86
2022-08-30T23:12:41.295Z,88.72
2022-08-30T23:17:44.709Z,88.71
2022-08-30T23:22:58.003Z,88.69
2022-08-30T23:28:20.743Z,88.61
2022-08-30T23:33:42.480Z,88.54
2022-08-30T23:39:03.839Z,88.54
2022-08-30T23:44:26.225Z,88.46
2022-08-30T23:49:47.758Z,88.51
2022-08-30T23:55:09.294Z,88.50
